Shaoguan, China
Current Conditions -  °F | °C
As of 9:00 AM on Friday 19 Dec 2014 (Local Time) from ZGGG Reporting Station
Overcast Overcast  
Wind Chill: 52°   Ceiling: 4600
Heat Index: 52°   Visibility: 6mi
Dew Point: 45°   Wind: 4mph
Humidity: 76%   Direction: 50°NE
Pressure: 30.33"   Gusts: NA
Location:  24.8°N, 113.58°E
Report Text: ZGGG 190100Z 05002MPS 9999 OVC046 11/07 Q1027 NOSIG
Loading
Personal Weather Stations






























Interactive Weather Map New forecast layout! Learn more

10-Day Weather Forecast

Advertisements
Track Severe Weather on mobile